createdAt,value
2022-11-29T00:00:49.000Z,41.95
2022-11-29T00:03:18.151Z,41.55
2022-11-29T00:05:47.322Z,40.83
2022-11-29T00:08:16.322Z,44.35
2022-11-29T00:10:45.418Z,42.17
2022-11-29T00:13:14.422Z,42.80
2022-11-29T00:15:43.499Z,43.60
2022-11-29T00:18:14.022Z,45.17
2022-11-29T00:20:43.102Z,43.78
2022-11-29T00:23:12.166Z,42.08
2022-11-29T00:25:41.183Z,43.97
2022-11-29T00:28:10.238Z,43.30
2022-11-29T00:30:39.435Z,44.05
2022-11-29T00:33:08.640Z,44.78
2022-11-29T00:35:39.115Z,40.88
2022-11-29T00:38:08.224Z,42.00
2022-11-29T00:40:37.243Z,41.55
2022-11-29T00:43:06.364Z,44.28
2022-11-29T00:45:35.513Z,41.88
2022-11-29T00:48:04.710Z,43.58
2022-11-29T00:50:33.767Z,43.75
2022-11-29T00:53:04.327Z,42.83
2022-11-29T00:55:33.399Z,45.10
2022-11-29T00:58:02.548Z,43.03
2022-11-29T01:00:31.678Z,42.25
2022-11-29T01:03:00.734Z,42.58
2022-11-29T01:05:31.690Z,42.20
2022-11-29T01:08:00.971Z,43.17
2022-11-29T01:10:31.548Z,43.97
2022-11-29T01:13:00.649Z,42.38
2022-11-29T01:15:31.130Z,44.42
2022-11-29T01:18:00.426Z,46.65
2022-11-29T01:20:29.894Z,44.78
2022-11-29T01:22:59.378Z,44.88
2022-11-29T01:25:29.439Z,43.67
2022-11-29T01:27:59.928Z,42.45
2022-11-29T01:30:28.990Z,40.58
2022-11-29T01:32:58.113Z,43.30
2022-11-29T01:35:27.288Z,43.88
2022-11-29T01:37:56.336Z,42.88
2022-11-29T01:40:25.366Z,42.15
2022-11-29T01:42:54.403Z,43.28
2022-11-29T01:45:27.292Z,43.15
2022-11-29T01:47:58.886Z,40.95
2022-11-29T01:50:27.979Z,38.95
2022-11-29T01:52:57.241Z,41.92
2022-11-29T01:55:26.861Z,41.22
2022-11-29T01:57:56.257Z,43.83
2022-11-29T02:00:26.855Z,41.50
2022-11-29T02:03:03.323Z,41.65
2022-11-29T02:05:33.527Z,40.87
2022-11-29T02:08:03.340Z,40.67
2022-11-29T02:10:46.476Z,42.10
2022-11-29T02:13:28.341Z,38.00
2022-11-29T02:16:08.410Z,38.40
2022-11-29T02:18:52.442Z,42.30
2022-11-29T02:21:34.766Z,40.20
2022-11-29T02:24:59.401Z,42.10
2022-11-29T02:28:25.806Z,39.45
2022-11-29T02:31:24.174Z,40.97
2022-11-29T02:34:21.875Z,42.17
2022-11-29T02:37:22.606Z,39.17
2022-11-29T02:40:29.610Z,42.00
2022-11-29T02:43:27.017Z,39.15
2022-11-29T02:46:17.844Z,39.22
2022-11-29T02:49:04.259Z,40.03
2022-11-29T02:51:44.145Z,42.42
2022-11-29T02:54:24.003Z,41.97
2022-11-29T02:56:58.156Z,41.80
2022-11-29T02:59:44.408Z,42.38
2022-11-29T03:02:24.158Z,41.85
2022-11-29T03:05:04.404Z,40.83
2022-11-29T03:07:46.023Z,42.58
2022-11-29T03:10:28.484Z,43.78
2022-11-29T03:12:59.150Z,45.00
2022-11-29T03:15:32.469Z,42.08
2022-11-29T03:18:16.924Z,42.10
2022-11-29T03:21:07.582Z,41.10
2022-11-29T03:23:43.628Z,42.35
2022-11-29T03:26:16.678Z,42.42
2022-11-29T03:28:53.354Z,39.40
2022-11-29T03:31:28.344Z,43.13
2022-11-29T03:34:08.966Z,42.65
2022-11-29T03:36:54.082Z,43.53
2022-11-29T03:39:34.552Z,44.95
2022-11-29T03:42:08.994Z,42.03
2022-11-29T03:44:47.969Z,43.75
2022-11-29T03:47:24.398Z,43.17
2022-11-29T03:50:00.265Z,44.03
2022-11-29T03:52:36.271Z,43.65
2022-11-29T03:55:25.622Z,42.50
2022-11-29T03:58:11.378Z,43.15
2022-11-29T04:01:03.398Z,45.97
2022-11-29T04:04:20.966Z,42.53
2022-11-29T04:07:12.615Z,44.38
2022-11-29T04:10:08.400Z,43.67
2022-11-29T04:13:37.061Z,43.20
2022-11-29T04:16:59.209Z,43.60
2022-11-29T04:19:59.111Z,44.45
2022-11-29T04:23:12.935Z,44.40
2022-11-29T04:26:04.135Z,46.53
2022-11-29T04:29:21.703Z,43.25
2022-11-29T04:32:41.505Z,41.92
2022-11-29T04:35:37.558Z,43.60
2022-11-29T04:38:52.651Z,42.13
2022-11-29T04:42:04.189Z,41.40
2022-11-29T04:45:01.664Z,42.85
2022-11-29T04:47:54.974Z,43.50
2022-11-29T04:50:46.316Z,43.75
2022-11-29T04:53:42.694Z,42.97
2022-11-29T04:56:22.599Z,42.97
2022-11-29T04:59:02.434Z,42.47
2022-11-29T05:01:46.217Z,41.58
2022-11-29T05:04:22.447Z,43.67
2022-11-29T05:07:04.885Z,43.05
2022-11-29T05:09:56.653Z,44.35
2022-11-29T05:12:39.339Z,40.72
2022-11-29T05:15:55.400Z,40.33
2022-11-29T05:19:04.375Z,40.17
2022-11-29T05:21:48.249Z,41.78
2022-11-29T05:24:33.003Z,40.58
2022-11-29T05:27:14.573Z,40.58
2022-11-29T05:29:56.103Z,40.50
2022-11-29T05:32:35.287Z,38.60
2022-11-29T05:35:51.135Z,38.70
2022-11-29T05:38:49.191Z,36.55
2022-11-29T05:41:37.699Z,35.72
2022-11-29T05:44:13.841Z,36.85
2022-11-29T05:46:55.674Z,36.90
2022-11-29T05:49:39.289Z,35.65
2022-11-29T05:52:25.360Z,37.70
2022-11-29T05:55:23.195Z,36.08
2022-11-29T05:57:58.838Z,36.75
2022-11-29T06:00:33.286Z,37.78
2022-11-29T06:03:16.834Z,38.60
2022-11-29T06:05:53.962Z,37.42
2022-11-29T06:08:36.534Z,37.13
2022-11-29T06:11:15.148Z,34.83
2022-11-29T06:14:02.493Z,36.38
2022-11-29T06:17:02.606Z,37.00
2022-11-29T06:20:26.371Z,38.03
2022-11-29T06:23:29.216Z,36.88
2022-11-29T06:26:19.168Z,37.03
2022-11-29T06:29:04.034Z,42.35
2022-11-29T06:31:38.549Z,36.83
2022-11-29T06:34:15.469Z,37.47
2022-11-29T06:36:50.525Z,37.35
2022-11-29T06:39:21.896Z,39.80
2022-11-29T06:41:50.866Z,38.88
2022-11-29T06:44:20.721Z,41.65
2022-11-29T06:46:54.956Z,36.97
2022-11-29T06:49:28.589Z,38.17
2022-11-29T06:52:12.474Z,37.90
2022-11-29T06:55:04.681Z,36.55
2022-11-29T06:57:52.816Z,38.10
2022-11-29T07:00:25.650Z,38.60
2022-11-29T07:03:24.133Z,40.20
2022-11-29T07:08:25.546Z,37.38
2022-11-29T07:10:57.118Z,37.70
2022-11-29T07:13:26.916Z,36.53
2022-11-29T07:16:08.066Z,37.92
2022-11-29T07:18:44.585Z,38.83
2022-11-29T07:21:24.471Z,38.10
2022-11-29T07:24:08.617Z,39.60
2022-11-29T07:26:47.528Z,39.08
2022-11-29T07:29:27.908Z,37.40
2022-11-29T07:32:11.722Z,35.35
2022-11-29T07:34:54.074Z,36.28
2022-11-29T07:37:33.438Z,36.28
2022-11-29T07:40:13.798Z,34.00
2022-11-29T07:43:01.501Z,36.45
2022-11-29T07:45:32.603Z,35.58
2022-11-29T07:48:01.777Z,34.17
2022-11-29T07:50:31.888Z,35.25
2022-11-29T07:53:01.366Z,31.75
2022-11-29T07:55:30.775Z,30.50
2022-11-29T07:58:01.282Z,31.02
2022-11-29T08:00:30.450Z,31.65
2022-11-29T08:02:59.901Z,32.67
2022-11-29T08:05:28.885Z,32.70
2022-11-29T08:07:57.999Z,32.50
2022-11-29T08:10:27.663Z,33.22
2022-11-29T08:12:56.817Z,36.78
2022-11-29T08:15:27.500Z,37.63
2022-11-29T08:17:56.605Z,36.28
2022-11-29T08:20:25.686Z,41.05
2022-11-29T08:22:57.109Z,37.45
2022-11-29T08:25:27.230Z,35.65
2022-11-29T08:27:57.226Z,36.75
2022-11-29T08:30:27.662Z,35.88
2022-11-29T08:32:56.759Z,37.92
2022-11-29T08:35:26.185Z,36.53
2022-11-29T08:37:56.286Z,36.88
2022-11-29T08:40:25.537Z,38.88
2022-11-29T08:42:58.969Z,38.90
2022-11-29T08:45:29.652Z,37.67
2022-11-29T08:47:58.756Z,37.17
2022-11-29T08:50:27.789Z,35.42
2022-11-29T08:53:16.991Z,34.80
2022-11-29T08:55:46.932Z,33.88
2022-11-29T08:58:17.242Z,35.28
2022-11-29T09:00:47.674Z,34.92
2022-11-29T09:03:34.304Z,35.15
2022-11-29T09:06:11.969Z,38.22
2022-11-29T09:08:43.867Z,37.83
2022-11-29T09:11:16.942Z,35.78
2022-11-29T09:13:50.306Z,35.45
2022-11-29T09:16:25.294Z,35.20
2022-11-29T09:18:56.210Z,35.03
2022-11-29T09:21:27.076Z,38.92
2022-11-29T09:23:59.318Z,38.38
2022-11-29T09:26:31.532Z,37.78
2022-11-29T09:29:01.779Z,36.13
2022-11-29T09:31:33.415Z,34.13
2022-11-29T09:34:02.483Z,39.85
2022-11-29T09:36:32.334Z,36.72
2022-11-29T09:39:03.781Z,34.13
2022-11-29T09:42:22.282Z,34.45
2022-11-29T09:45:04.278Z,36.47
2022-11-29T09:48:02.346Z,36.65
2022-11-29T09:50:36.680Z,38.70
2022-11-29T09:53:23.940Z,37.60
2022-11-29T09:56:11.195Z,36.60
2022-11-29T09:58:47.308Z,34.55
2022-11-29T10:01:24.826Z,33.92
2022-11-29T10:04:01.967Z,35.38
2022-11-29T10:06:38.823Z,38.13
2022-11-29T10:09:16.731Z,34.85
2022-11-29T10:12:07.266Z,37.05
2022-11-29T10:14:46.220Z,38.08
2022-11-29T10:17:30.665Z,37.97
2022-11-29T10:20:11.628Z,40.05
2022-11-29T10:22:49.606Z,37.75
2022-11-29T10:25:25.540Z,38.83
2022-11-29T10:27:55.430Z,37.45
2022-11-29T10:30:24.610Z,37.75
2022-11-29T10:32:59.001Z,36.83
2022-11-29T10:35:29.672Z,37.55
2022-11-29T10:40:57.934Z,39.20
2022-11-29T10:43:27.698Z,34.58
2022-11-29T10:45:57.175Z,34.10
2022-11-29T10:48:31.787Z,33.80
2022-11-29T10:51:03.576Z,34.10
2022-11-29T10:53:37.768Z,32.25
2022-11-29T10:56:10.746Z,32.17
2022-11-29T10:58:57.588Z,34.30
2022-11-29T11:01:29.112Z,33.50
2022-11-29T11:04:03.230Z,34.35
2022-11-29T11:06:47.012Z,33.20
2022-11-29T11:09:22.211Z,33.80
2022-11-29T11:11:53.878Z,33.67
2022-11-29T11:14:25.678Z,31.27
2022-11-29T11:16:55.659Z,31.35
2022-11-29T11:19:31.730Z,32.80
2022-11-29T11:22:05.010Z,33.08
2022-11-29T11:24:40.046Z,31.73
2022-11-29T11:27:09.547Z,32.13
2022-11-29T11:29:43.365Z,29.95
2022-11-29T11:32:19.372Z,28.65
2022-11-29T11:34:53.905Z,29.40
2022-11-29T11:37:28.459Z,27.35
2022-11-29T11:40:00.023Z,27.50
2022-11-29T11:42:40.508Z,28.42
2022-11-29T11:45:31.208Z,27.63
2022-11-29T11:48:04.382Z,28.02
2022-11-29T11:50:38.659Z,29.80
2022-11-29T11:53:22.640Z,29.50
2022-11-29T11:56:01.854Z,30.30
2022-11-29T11:58:33.091Z,30.42
2022-11-29T12:01:17.967Z,30.67
2022-11-29T12:03:55.913Z,31.63
2022-11-29T12:06:38.210Z,32.03
2022-11-29T12:09:21.087Z,30.25
2022-11-29T12:12:01.508Z,30.98
2022-11-29T12:14:41.562Z,30.27
2022-11-29T12:17:20.402Z,30.65
2022-11-29T12:20:14.334Z,29.70
2022-11-29T12:22:52.262Z,29.02
2022-11-29T12:25:28.188Z,28.05
2022-11-29T12:27:57.433Z,31.50
2022-11-29T12:30:26.671Z,35.83
2022-11-29T12:33:19.345Z,29.63
2022-11-29T12:36:06.452Z,27.48
2022-11-29T12:38:51.647Z,28.40
2022-11-29T12:41:35.973Z,28.58
2022-11-29T12:44:18.278Z,29.85
2022-11-29T12:47:02.135Z,27.73
2022-11-29T12:49:54.648Z,28.00
2022-11-29T12:52:34.715Z,27.38
2022-11-29T12:55:17.372Z,28.67
2022-11-29T12:58:02.339Z,29.05
2022-11-29T13:00:39.638Z,29.45
2022-11-29T13:03:22.377Z,27.42
2022-11-29T13:06:07.678Z,27.77
2022-11-29T13:09:21.118Z,27.42
2022-11-29T13:11:57.133Z,27.38
2022-11-29T13:14:44.165Z,29.75
2022-11-29T13:17:31.385Z,27.13
2022-11-29T13:20:06.052Z,28.50
2022-11-29T13:22:45.960Z,28.38
2022-11-29T13:25:19.923Z,26.23
2022-11-29T13:27:58.515Z,25.73
2022-11-29T13:30:29.148Z,26.20
2022-11-29T13:33:05.422Z,25.35
2022-11-29T13:35:43.122Z,24.42
2022-11-29T13:38:20.010Z,27.17
2022-11-29T13:40:58.818Z,26.05
2022-11-29T13:43:37.495Z,24.55
2022-11-29T13:46:24.291Z,24.55
2022-11-29T13:48:55.410Z,24.23
2022-11-29T13:51:29.573Z,23.45
2022-11-29T13:54:02.524Z,24.33
2022-11-29T13:56:43.334Z,23.67
2022-11-29T13:59:20.473Z,26.13
2022-11-29T14:01:54.029Z,25.60
2022-11-29T14:04:37.504Z,25.95
2022-11-29T14:07:12.241Z,25.35
2022-11-29T14:09:50.517Z,26.20
2022-11-29T14:12:37.081Z,27.10
2022-11-29T14:15:22.237Z,28.85
2022-11-29T14:17:56.092Z,27.20
2022-11-29T14:20:59.173Z,26.17
2022-11-29T14:23:41.475Z,29.15
2022-11-29T14:26:29.158Z,29.65
2022-11-29T14:31:57.326Z,29.15
2022-11-29T14:34:41.009Z,28.15
2022-11-29T14:37:32.949Z,28.52
2022-11-29T14:40:12.778Z,28.20
2022-11-29T14:42:48.928Z,28.27
2022-11-29T14:45:29.270Z,26.88
2022-11-29T14:47:59.269Z,28.17
2022-11-29T14:50:39.287Z,28.98
2022-11-29T14:53:30.330Z,26.95
2022-11-29T14:56:38.912Z,28.02
2022-11-29T14:59:51.369Z,26.88
2022-11-29T15:02:33.686Z,28.25
2022-11-29T15:05:18.837Z,30.65
2022-11-29T15:08:02.321Z,28.20
2022-11-29T15:10:38.615Z,28.80
2022-11-29T15:13:11.841Z,29.13
2022-11-29T15:16:13.772Z,28.15
2022-11-29T15:19:15.982Z,27.58
2022-11-29T15:21:57.254Z,29.30
2022-11-29T15:24:28.876Z,28.67
2022-11-29T15:26:59.190Z,26.60
2022-11-29T15:29:30.170Z,27.48
2022-11-29T15:32:01.701Z,28.50
2022-11-29T15:34:36.254Z,27.98
2022-11-29T15:37:05.898Z,26.67
2022-11-29T15:39:39.624Z,27.70
2022-11-29T15:42:14.317Z,27.60
2022-11-29T15:44:46.748Z,28.67
2022-11-29T15:47:17.731Z,27.27
2022-11-29T15:49:46.813Z,28.33
2022-11-29T15:52:25.746Z,26.90
2022-11-29T15:55:01.374Z,27.38
2022-11-29T15:57:36.252Z,29.70
2022-11-29T16:00:16.598Z,30.17
2022-11-29T16:02:50.918Z,30.52
2022-11-29T16:05:24.203Z,29.85
2022-11-29T16:07:56.778Z,29.27
2022-11-29T16:10:36.936Z,29.13
2022-11-29T16:13:26.979Z,29.05
2022-11-29T16:16:13.297Z,29.42
2022-11-29T16:18:45.462Z,30.95
2022-11-29T16:21:26.525Z,32.20
2022-11-29T16:23:56.357Z,33.47
2022-11-29T16:26:31.227Z,34.33
2022-11-29T16:29:01.162Z,34.95
2022-11-29T16:31:35.658Z,34.13
2022-11-29T16:34:10.193Z,31.50
2022-11-29T16:36:39.336Z,32.00
2022-11-29T16:39:24.172Z,31.30
2022-11-29T16:42:09.603Z,32.45
2022-11-29T16:45:09.459Z,31.55
2022-11-29T16:47:53.096Z,33.65
2022-11-29T16:50:23.467Z,32.75
2022-11-29T16:52:56.570Z,32.05
2022-11-29T16:55:26.186Z,29.15
2022-11-29T16:57:57.038Z,29.65
2022-11-29T17:00:33.070Z,28.60
2022-11-29T17:03:02.381Z,27.95
2022-11-29T17:05:31.810Z,28.73
2022-11-29T17:08:01.808Z,33.88
2022-11-29T17:10:32.275Z,37.38
2022-11-29T17:13:04.451Z,38.50
2022-11-29T17:15:34.866Z,37.47
2022-11-29T17:18:04.199Z,39.50
2022-11-29T17:20:33.899Z,38.30
2022-11-29T17:23:03.105Z,37.72
2022-11-29T17:25:32.178Z,37.20
2022-11-29T17:28:03.795Z,41.85
2022-11-29T17:30:32.902Z,41.08
2022-11-29T17:33:03.258Z,38.88
2022-11-29T17:35:32.474Z,37.38
2022-11-29T17:38:01.658Z,35.03
2022-11-29T17:40:30.692Z,36.40
2022-11-29T17:42:59.742Z,34.95
2022-11-29T17:45:30.419Z,32.85
2022-11-29T17:48:00.657Z,32.40
2022-11-29T17:50:29.780Z,31.48
2022-11-29T17:52:58.842Z,33.10
2022-11-29T17:55:29.747Z,33.80
2022-11-29T17:57:59.304Z,33.17
2022-11-29T18:00:30.260Z,34.00
2022-11-29T18:02:59.360Z,34.25
2022-11-29T18:05:34.365Z,35.42
2022-11-29T18:08:06.343Z,34.42
2022-11-29T18:10:36.425Z,33.80
2022-11-29T18:13:05.629Z,32.67
2022-11-29T18:15:36.541Z,34.47
2022-11-29T18:18:06.342Z,33.25
2022-11-29T18:20:35.500Z,33.10
2022-11-29T18:23:07.926Z,34.38
2022-11-29T18:25:39.080Z,34.83
2022-11-29T18:28:11.511Z,33.85
2022-11-29T18:30:42.254Z,34.83
2022-11-29T18:33:11.488Z,35.50
2022-11-29T18:35:40.990Z,34.80
2022-11-29T18:38:17.367Z,36.33
2022-11-29T18:40:46.756Z,34.70
2022-11-29T18:43:18.049Z,35.45
2022-11-29T18:45:48.697Z,34.80
2022-11-29T18:48:17.826Z,34.00
2022-11-29T18:50:47.062Z,34.78
2022-11-29T18:53:17.067Z,34.72
2022-11-29T18:55:46.279Z,36.03
2022-11-29T18:58:15.594Z,34.20
2022-11-29T19:00:44.666Z,35.63
2022-11-29T19:03:15.615Z,34.83
2022-11-29T19:05:52.626Z,33.13
2022-11-29T19:08:22.541Z,35.40
2022-11-29T19:10:54.104Z,35.00
2022-11-29T19:13:25.356Z,36.63
2022-11-29T19:15:56.046Z,37.00
2022-11-29T19:18:27.936Z,37.70
2022-11-29T19:21:07.274Z,35.92
2022-11-29T19:23:36.991Z,37.92
2022-11-29T19:26:07.995Z,37.05
2022-11-29T19:28:42.428Z,34.40
2022-11-29T19:31:15.252Z,35.33
2022-11-29T19:33:47.337Z,35.70
2022-11-29T19:36:19.489Z,37.28
2022-11-29T19:38:53.379Z,35.53
2022-11-29T19:41:28.948Z,34.40
2022-11-29T19:44:00.165Z,34.47
2022-11-29T19:46:31.982Z,35.92
2022-11-29T19:49:04.329Z,33.45
2022-11-29T19:51:33.891Z,35.00
2022-11-29T19:54:05.925Z,37.13
2022-11-29T19:56:36.255Z,37.97
2022-11-29T19:59:06.730Z,36.67
2022-11-29T20:01:40.870Z,38.50
2022-11-29T20:04:16.704Z,35.40
2022-11-29T20:06:47.824Z,36.05
2022-11-29T20:09:17.339Z,35.88
2022-11-29T20:11:46.457Z,36.22
2022-11-29T20:14:15.743Z,37.92
2022-11-29T20:16:46.014Z,38.33
2022-11-29T20:19:19.066Z,36.92
2022-11-29T20:21:50.059Z,38.33
2022-11-29T20:24:20.338Z,36.30
2022-11-29T20:26:50.516Z,37.75
2022-11-29T20:29:21.573Z,38.70
2022-11-29T20:31:51.490Z,37.90
2022-11-29T20:34:22.477Z,38.92
2022-11-29T20:37:23.151Z,38.40
2022-11-29T20:40:00.626Z,43.75
2022-11-29T20:42:54.837Z,40.88
2022-11-29T20:45:25.617Z,40.33
2022-11-29T20:48:02.032Z,40.08
2022-11-29T20:50:34.502Z,39.37
2022-11-29T20:53:21.756Z,38.65
2022-11-29T20:55:51.141Z,39.17
2022-11-29T20:58:20.275Z,40.53
2022-11-29T21:00:49.594Z,40.75
2022-11-29T21:03:20.592Z,38.22
2022-11-29T21:05:52.441Z,38.72
2022-11-29T21:08:23.032Z,38.50
2022-11-29T21:10:52.817Z,36.42
2022-11-29T21:13:24.474Z,39.03
2022-11-29T21:15:54.452Z,39.83
2022-11-29T21:18:26.298Z,39.53
2022-11-29T21:21:11.261Z,40.15
2022-11-29T21:24:12.152Z,39.83
2022-11-29T21:26:46.026Z,40.17
2022-11-29T21:29:20.542Z,37.80
2022-11-29T21:31:53.290Z,36.85
2022-11-29T21:34:27.472Z,38.17
2022-11-29T21:37:01.758Z,37.40
2022-11-29T21:39:35.348Z,39.35
2022-11-29T21:42:05.303Z,40.00
2022-11-29T21:44:34.731Z,39.40
2022-11-29T21:47:06.413Z,40.38
2022-11-29T21:49:35.895Z,38.58
2022-11-29T21:52:07.037Z,38.40
2022-11-29T21:54:36.565Z,39.40
2022-11-29T21:57:08.075Z,39.38
2022-11-29T21:59:41.340Z,41.08
2022-11-29T22:02:10.589Z,38.33
2022-11-29T22:04:39.731Z,41.65
2022-11-29T22:07:11.342Z,39.75
2022-11-29T22:09:40.882Z,41.17
2022-11-29T22:12:32.592Z,39.45
2022-11-29T22:15:01.725Z,40.08
2022-11-29T22:17:31.020Z,40.47
2022-11-29T22:20:00.492Z,37.70
2022-11-29T22:22:31.335Z,39.40
2022-11-29T22:25:00.538Z,39.78
2022-11-29T22:27:29.622Z,38.25
2022-11-29T22:29:58.799Z,41.05
2022-11-29T22:32:27.922Z,40.30
2022-11-29T22:34:57.025Z,40.28
2022-11-29T22:37:26.111Z,40.70
2022-11-29T22:39:56.734Z,39.95
2022-11-29T22:42:26.342Z,39.55
2022-11-29T22:44:55.448Z,40.45
2022-11-29T22:47:24.582Z,41.55
2022-11-29T22:49:53.745Z,41.33
2022-11-29T22:52:22.865Z,42.38
2022-11-29T22:54:52.060Z,43.03
2022-11-29T22:57:22.534Z,39.83
2022-11-29T22:59:52.642Z,40.17
2022-11-29T23:02:21.859Z,39.55
2022-11-29T23:04:50.993Z,37.90
2022-11-29T23:07:20.189Z,37.58
2022-11-29T23:09:49.427Z,38.47
2022-11-29T23:12:18.454Z,37.25
2022-11-29T23:14:54.510Z,39.28
2022-11-29T23:17:25.571Z,41.13
2022-11-29T23:19:54.720Z,40.97
2022-11-29T23:22:23.881Z,39.15
2022-11-29T23:24:53.080Z,39.65
2022-11-29T23:27:22.195Z,38.85
2022-11-29T23:29:52.933Z,39.97
2022-11-29T23:32:21.962Z,39.50
2022-11-29T23:34:51.262Z,41.03
2022-11-29T23:37:20.483Z,38.30
2022-11-29T23:39:49.551Z,39.35
2022-11-29T23:42:18.668Z,39.97
2022-11-29T23:44:47.975Z,38.58
2022-11-29T23:47:18.746Z,38.42
2022-11-29T23:49:47.840Z,39.50
2022-11-29T23:52:17.045Z,40.65
2022-11-29T23:54:46.442Z,38.15
2022-11-29T23:57:15.793Z,38.88
2022-11-29T23:59:44.884Z,36.70
